Impacts TAF Board INFO
FOR SITUATIONAL AWARENESS. NOT TO BE USED FOR FLIGHT PLANNING PURPOSES.
IDs:

KDFW - Dallas-Ft Worth Intl, TX, US

Issued at 1452 UTC 16 Dec 2017
Updated at 1654 UTC 16 Dec 2017
Potential Impact None Slight Moderate High
Time<<17/17Z 17/18Z 17/19Z 17/20Z 17/21Z 17/22Z 17/23Z 18/00Z 18/01Z 18/02Z 18/03Z 18/04Z 18/05Z
Type PRVL
VIS >6
CIG 15
Cover BKN
FltCat MVFR
WX --
WDir 170
WSpd 6
WGst --

Raw TAF
KDFW 161452Z 1615/1718 19008KT P6SM BKN250
  FM161600 18014KT P6SM BKN200
  FM162200 17012KT P6SM VCSH BKN060
  FM170000 17010KT 6SM -SHRA BKN030
  FM170300 17008KT 4SM SHRA BR OVC010
  FM170600 17007KT 2SM BR OVC007
  FM171500 17006KT P6SM BKN015


METAR Board
Radar Display
Forecast Discussion

FOR SITUATIONAL AWARENESS. NOT TO BE USED FOR FLIGHT PLANNING PURPOSES.